罗盘
风向 的 风向 的 风向 到 风向 290° Terlet Airfield 4C/22C
风: 4 kt, 2 beaufort

1 kt

4 kt
改变
0 1.000 2.000 3.000 4.000 5.000
FEW 4.600 ft
METAR EHDL 281155Z AUTO 29004KT 210V320 9999 FEW046 13/06 Q0997 BLU

METAR Terlet Airfield - EHTL

Terlet Airfield是Arnhem,荷兰中的格利德菲尔德。 该机场有7条跑道: 4C/22C, 4L/22R, 4R/22L, 12/30, 14L/32R, 14R/32L 和 14/32. 该领域的国际民航组织标志是EHTL.

这份报告是针对2022年9月28日 13:55, 当地时间在Deelen Air Base进行的。

机场观察

风向为290°,速度为4 kt。 风向在210°和320°之间变化。

可见度为10 km 或者更多。

有几云在4.600 ft的高度。 没有观察到天花板。

温度和风寒是13 °C。 露点为6 °C,相对湿度为63%。 海平面上的气压为997 hPa (QNH)。

白天

今天,太阳从07:32升起,在19:21降落。 这适用于Terlet Airfield,世界夏令时可能有所不同。 当地时间与世界标准时间之间的时差为+2 小时。 夏令时目前正在进行中。

公司介绍

在这个机场,你可以找到滑翔机飞行俱乐部 和 飞行俱乐部。 这个机场上的公司有Vliegles.nl 和 Delftsche Studenten Aeroclub。

体会

在这个机场有飞行课程。 你可以在没有任何经验的情况下预订飞行课程。 在Terlet Airfield预订最多的飞行课程类型是Glider flying day course。 这些课程的价格从€ 149开始。 在这里阅读更多关于Glider flying day course的信息。你也可以在这个网站上进行预订。

跑道

Id 标题 侧风 逆风 侧风 %
4C/22C 040°-220° 4 kt 1 kt 94 %
4L/22R 040°-220° 4 kt 1 kt 94 %
4R/22L 040°-220° 4 kt 1 kt 94 %
12/30 120°-300° 4 kt 17 %
14L/32R 140°-320° 2 kt 3 kt 50 %
14R/32L 140°-320° 2 kt 3 kt 50 %
14/32 139°-319° 2 kt 3 kt 48 %

逆风成分最大的方向会被突出显示,并用于横风计算。 这并不一定意味着这个方向在使用。

乌云

4.600 ft FEW 几云

温度 & 天气

温度 13 °C
露点 6 °C
相对湿度 63%
Kp-index 1 (0-9)

白天

日出
07:32
中午
13:27
日落
19:21 (5h 19m)

小工具

你想在你的网站上有一个关于Terlet Airfield的当前航空天气(METAR)的小部件吗?

</> 显示HTML代码

我们和第三方通过cookies跟踪您在我们网站上的上网行为。如果您继续,我们认为您同意我们的cookie政策。 了解更多